Bookmark and Share
Track history (hours):
 

Britney Lee

More information available from US FCC via Universal Licensing System and Coast Guard Vessel Documentation Center.

Last reported at 2013-Jan-03 00:33 UTC. Time now 2014-Apr-21 15:19 UTC.
Position N 30°13' W 091°04'.
Warning: this ship's position is years out of date!

Length 43 m; draft 2.9 m.

Type: Towing. MMSI: 367129650.

NotesDate/timePositionNaut miles runAvg speedWind from/ knotsBaromVisibWave heightAir tempDewpointWater temp
2013-Jan-03 00:33N 30°13' W 091°04'6 2.9
2013-Jan-02 22:24N 30°07' W 091°02'3 1.7
2013-Jan-02 20:27N 30°07' W 090°58'0 0.0
2013-Jan-02 19:27N 30°07' W 090°58'0 0.0
2013-Jan-02 18:33N 30°07' W 090°58'0 0.0
2013-Jan-02 17:33N 30°07' W 090°58'2 1.6
2013-Jan-02 16:30N 30°08' W 090°57'5 2.4
2013-Jan-02 14:32N 30°04' W 090°54'  
2012-Dec-31 08:33N 30°04' W 090°54'0 0.0
2012-Dec-31 07:26N 30°04' W 090°54'12 0.6
2012-Dec-30 12:28N 30°02' W 090°41'4 5.0
2012-Dec-30 11:36N 30°03' W 090°36'6 5.6
2012-Dec-30 10:33N 30°03' W 090°29'5 4.8
2012-Dec-30 09:31N 29°59' W 090°25'5 5.2
2012-Dec-30 08:33N 29°56' W 090°20'0 0.2
2012-Dec-30 07:33N 29°56' W 090°21'1 0.8
2012-Dec-30 06:33N 29°56' W 090°21'0 0.0
2012-Dec-30 05:52N 29°56' W 090°21'1 0.6
2012-Dec-30 04:34N 29°56' W 090°22'4 4.2
2012-Dec-30 03:34N 29°60' W 090°25'0 0.1
2012-Dec-30 02:30N 29°60' W 090°25'0 0.0
2012-Dec-30 01:33N 29°60' W 090°25'1 1.1
2012-Dec-30 00:33N 29°60' W 090°26'5 4.9
2012-Dec-29 23:33N 30°03' W 090°30'6 6.0
2012-Dec-29 22:30N 30°02' W 090°38'1 0.8
2012-Dec-29 21:33N 30°03' W 090°38'0 0.0
2012-Dec-29 20:33N 30°03' W 090°38'0 0.0
2012-Dec-29 19:33N 30°03' W 090°38'3 3.0
2012-Dec-29 18:29N 30°02' W 090°42'130 2.6
2012-Dec-27 16:33N 32°10' W 091°00'7 6.8
2012-Dec-27 15:33N 32°17' W 090°57'4 4.4
2012-Dec-27 14:33N 32°21' W 090°55'5 4.8
2012-Dec-27 13:33N 32°24' W 090°59'6 6.5
2012-Dec-27 12:34N 32°28' W 091°06'  

Dump ship's entire track history

sailing weather and tide predictions

Britney Lee — WDC2895 — position and weather